Time;durP1;ratioP1;P1;durP2;ratioP2;P2;SDS_P1;SDS_P2;PMS_P1;PMS_P2;Temp;Humidity;BMP_temperature;BMP_pressure;BME280_temperature;BME280_humidity;BME280_pressure;Samples;Min_cycle;Max_cycle;Signal;HPM_P1;HPM_P2
2022/05/23 00:00:24;;;;;;;21.27;17.20;;;18.60;76.10;;;;;;4999317;28;20073;-78
2022/05/23 00:02:50;;;;;;;21.98;16.85;;;18.60;76.10;;;;;;5005413;28;20679;-78
2022/05/23 00:05:16;;;;;;;22.92;18.50;;;18.70;76.10;;;;;;5006255;28;20056;-77
2022/05/23 00:07:45;;;;;;;21.95;17.67;;;18.60;75.80;;;;;;5005388;28;20050;-78
2022/05/23 00:10:13;;;;;;;25.95;18.55;;;18.60;75.80;;;;;;5010430;28;20111;-78
2022/05/23 00:12:40;;;;;;;24.67;19.00;;;18.60;75.50;;;;;;5012039;28;20140;-78
2022/05/23 00:15:09;;;;;;;25.65;18.85;;;18.60;75.50;;;;;;4998995;28;20045;-78
2022/05/23 00:17:35;;;;;;;28.75;21.45;;;18.60;75.30;;;;;;5017400;28;20129;-77
2022/05/23 00:20:06;;;;;;;28.38;22.38;;;18.40;75.20;;;;;;5002883;28;21309;-77
2022/05/23 00:22:31;;;;;;;23.83;19.83;;;18.30;75.30;;;;;;5006931;28;20073;-79
2022/05/23 00:24:58;;;;;;;27.13;21.70;;;18.30;75.20;;;;;;5012645;28;20447;-79
2022/05/23 00:27:23;;;;;;;27.10;20.83;;;18.30;75.10;;;;;;5000718;28;20375;-79
2022/05/23 00:29:50;;;;;;;24.35;21.63;;;18.30;75.00;;;;;;5003281;28;20030;-78
2022/05/23 00:35:19;;;;;;;32.15;23.30;;;18.30;75.00;;;;;;5013028;28;20141;-79
2022/05/23 00:37:46;;;;;;;26.80;22.13;;;18.20;75.00;;;;;;5008773;28;20857;-79
2022/05/23 00:40:28;;;;;;;29.27;25.05;;;18.20;75.20;;;;;;5006695;28;20287;-78
2022/05/23 00:43:15;;;;;;;30.50;25.30;;;18.10;75.10;;;;;;5011496;28;20164;-78
2022/05/23 00:45:53;;;;;;;29.33;25.02;;;18.10;74.80;;;;;;5005512;28;20053;-78
2022/05/23 00:48:25;;;;;;;27.83;23.38;;;18.10;74.90;;;;;;5008718;28;20042;-78
2022/05/23 00:50:55;;;;;;;29.30;23.63;;;18.10;74.90;;;;;;5017254;28;20037;-79
2022/05/23 00:53:30;;;;;;;27.67;23.83;;;18.10;75.10;;;;;;5005327;28;20050;-78
2022/05/23 00:55:56;;;;;;;34.75;28.05;;;18.10;75.10;;;;;;5011091;28;20129;-78
2022/05/23 00:58:29;;;;;;;29.67;24.58;;;18.10;75.00;;;;;;5002867;28;20052;-79
2022/05/23 01:00:58;;;;;;;26.30;23.30;;;18.10;75.10;;;;;;5019431;28;20123;-79
2022/05/23 01:03:24;;;;;;;30.20;24.23;;;18.10;74.90;;;;;;5011263;28;20149;-78
2022/05/23 01:05:54;;;;;;;28.27;24.35;;;18.10;75.00;;;;;;5013935;28;20224;-78
2022/05/23 01:08:21;;;;;;;27.92;23.95;;;18.10;75.20;;;;;;4999743;28;20351;-78
2022/05/23 01:10:47;;;;;;;30.23;25.13;;;18.10;75.40;;;;;;5011601;28;20033;-79
2022/05/23 01:13:15;;;;;;;28.13;25.17;;;18.10;75.60;;;;;;5006018;28;20558;-78
2022/05/23 01:15:45;;;;;;;31.40;27.10;;;18.10;75.50;;;;;;5004795;28;20342;-78
2022/05/23 01:18:10;;;;;;;29.38;26.05;;;18.10;75.50;;;;;;5010546;28;20045;-78
2022/05/23 01:20:36;;;;;;;27.63;24.73;;;18.10;75.30;;;;;;5013489;28;20038;-79
2022/05/23 01:23:27;;;;;;;27.77;24.63;;;18.10;75.40;;;;;;5007099;28;20055;-80
2022/05/23 01:25:53;;;;;;;34.67;27.48;;;18.10;75.60;;;;;;5007667;28;20042;-79
2022/05/23 01:28:19;;;;;;;30.10;26.48;;;18.10;75.80;;;;;;4998798;28;20371;-78
2022/05/23 01:30:46;;;;;;;29.27;24.80;;;18.10;75.90;;;;;;5011932;28;20141;-78
2022/05/23 01:33:13;;;;;;;36.42;28.60;;;18.10;75.90;;;;;;5010294;28;20528;-79
2022/05/23 01:35:39;;;;;;;35.03;26.85;;;18.10;75.70;;;;;;5012795;28;20087;-79
2022/05/23 01:38:05;;;;;;;28.13;24.15;;;18.00;76.00;;;;;;5000876;28;20270;-78
2022/05/23 01:40:31;;;;;;;28.88;24.05;;;18.10;76.20;;;;;;5001811;28;20123;-78
2022/05/23 01:42:57;;;;;;;28.35;23.83;;;18.00;76.40;;;;;;5007491;28;20486;-78
2022/05/23 01:45:26;;;;;;;28.63;24.77;;;18.00;76.60;;;;;;5012546;28;21681;-78
2022/05/23 01:47:53;;;;;;;26.10;23.35;;;18.00;76.60;;;;;;5008207;28;20411;-78
2022/05/23 01:50:20;;;;;;;26.35;23.52;;;18.00;76.80;;;;;;5001727;28;20129;-78
2022/05/23 01:52:46;;;;;;;30.27;25.75;;;18.10;77.00;;;;;;5006825;28;20465;-78
2022/05/23 01:55:12;;;;;;;31.67;24.52;;;18.00;77.00;;;;;;5009875;28;20046;-78
2022/05/23 01:57:37;;;;;;;29.13;25.38;;;17.90;77.00;;;;;;5005455;28;20382;-78
2022/05/23 02:02:49;;;;;;;33.78;29.52;;;17.80;77.10;;;;;;5004061;28;20033;-78
2022/05/23 02:05:16;;;;;;;32.63;26.75;;;17.90;77.00;;;;;;5001934;28;20108;-78
2022/05/23 02:07:41;;;;;;;31.48;28.08;;;17.80;77.00;;;;;;5003868;28;20058;-79
2022/05/23 02:10:08;;;;;;;32.28;27.45;;;17.80;77.10;;;;;;5021011;28;20060;-78
2022/05/23 02:12:33;;;;;;;35.42;28.15;;;17.70;77.20;;;;;;5007793;28;20379;-78
2022/05/23 02:14:59;;;;;;;34.25;30.38;;;17.70;77.30;;;;;;5002716;28;20037;-78
2022/05/23 02:17:24;;;;;;;35.47;30.13;;;17.70;77.40;;;;;;5012261;28;20033;-78
2022/05/23 02:19:50;;;;;;;39.53;30.73;;;17.70;77.70;;;;;;5008519;28;20026;-78
2022/05/23 02:22:16;;;;;;;34.60;30.45;;;17.60;77.90;;;;;;5006896;28;20042;-78
2022/05/23 02:24:41;;;;;;;32.95;29.58;;;17.60;78.00;;;;;;5004812;28;20037;-79
2022/05/23 02:27:07;;;;;;;35.50;30.73;;;17.60;78.20;;;;;;5014079;28;20045;-78
2022/05/23 02:29:34;;;;;;;38.30;32.30;;;17.60;78.30;;;;;;5006338;28;20033;-79
2022/05/23 02:32:00;;;;;;;34.10;30.40;;;17.50;78.50;;;;;;5006426;28;20467;-78
2022/05/23 02:34:25;;;;;;;34.97;30.67;;;17.50;78.60;;;;;;5004438;28;20042;-79
2022/05/23 02:36:51;;;;;;;35.08;31.27;;;17.50;78.70;;;;;;5009147;28;20041;-78
2022/05/23 02:39:17;;;;;;;36.25;32.13;;;17.50;78.90;;;;;;5003988;28;20060;-78
2022/05/23 02:41:43;;;;;;;37.88;32.83;;;17.50;79.10;;;;;;5003557;28;20117;-79
2022/05/23 02:44:09;;;;;;;42.00;37.47;;;17.40;79.10;;;;;;5008230;28;20152;-79
2022/05/23 02:46:35;;;;;;;42.72;36.38;;;17.40;79.10;;;;;;5005292;28;20064;-78
2022/05/23 02:49:01;;;;;;;43.08;36.63;;;17.30;79.40;;;;;;5002930;28;20137;-78
2022/05/23 02:51:27;;;;;;;40.90;35.67;;;17.20;79.80;;;;;;5008231;28;20432;-79
2022/05/23 02:53:52;;;;;;;44.00;39.30;;;17.20;80.00;;;;;;5004126;28;20521;-78
2022/05/23 02:56:18;;;;;;;43.58;39.03;;;17.20;80.00;;;;;;5014450;28;20436;-78
2022/05/23 02:58:44;;;;;;;48.08;40.72;;;17.20;80.00;;;;;;4997652;28;20030;-78
2022/05/23 03:01:11;;;;;;;46.30;40.70;;;17.10;80.30;;;;;;5013557;28;20038;-78
2022/05/23 03:03:37;;;;;;;46.40;39.53;;;17.10;80.40;;;;;;5008481;28;20041;-79
2022/05/23 03:06:04;;;;;;;44.20;39.67;;;17.00;80.80;;;;;;5008897;28;20372;-78
2022/05/23 03:08:30;;;;;;;49.45;40.67;;;17.00;80.80;;;;;;5004642;28;20049;-79
2022/05/23 03:10:59;;;;;;;45.08;40.15;;;17.00;80.60;;;;;;5009444;28;20041;-78
2022/05/23 03:13:25;;;;;;;45.55;40.65;;;17.00;80.80;;;;;;5011934;28;20491;-78
2022/05/23 03:15:51;;;;;;;41.55;37.13;;;17.00;81.10;;;;;;5009763;28;20025;-78
2022/05/23 03:18:17;;;;;;;44.45;39.08;;;17.00;81.10;;;;;;5004470;28;20042;-78
2022/05/23 03:20:43;;;;;;;44.97;38.40;;;17.00;81.00;;;;;;5011744;28;20056;-77
2022/05/23 03:28:39;;;;;;;42.42;37.92;;;17.00;81.00;;;;;;5006096;28;20053;-79
2022/05/23 03:31:06;;;;;;;43.85;39.35;;;17.00;81.00;;;;;;5007362;28;20508;-78
2022/05/23 03:33:32;;;;;;;43.67;38.78;;;17.00;81.10;;;;;;5005830;28;20461;-79
2022/05/23 03:35:58;;;;;;;45.97;41.13;;;17.00;81.20;;;;;;5005937;28;20033;-78
2022/05/23 03:38:23;;;;;;;44.97;40.25;;;17.00;81.10;;;;;;5004158;28;20080;-78
2022/05/23 03:40:49;;;;;;;48.35;43.05;;;17.00;81.20;;;;;;5008238;28;20029;-78
2022/05/23 03:43:15;;;;;;;51.08;45.70;;;16.90;81.40;;;;;;5011292;28;20029;-79
2022/05/23 03:45:42;;;;;;;51.28;45.08;;;16.80;81.40;;;;;;5006279;28;20032;-78
2022/05/23 03:48:08;;;;;;;47.47;42.13;;;16.80;81.50;;;;;;5006148;28;20393;-78
2022/05/23 03:50:35;;;;;;;52.33;46.83;;;16.90;81.60;;;;;;5004421;28;20485;-78
2022/05/23 03:53:01;;;;;;;51.15;45.75;;;16.90;81.60;;;;;;5011027;28;20470;-79
2022/05/23 03:55:28;;;;;;;54.88;49.00;;;16.90;81.60;;;;;;5005864;28;20386;-79
2022/05/23 03:57:54;;;;;;;53.63;47.83;;;16.90;81.70;;;;;;5008405;28;20465;-79
2022/05/23 04:00:21;;;;;;;55.75;50.00;;;16.80;81.80;;;;;;5012343;28;20044;-79
2022/05/23 04:02:46;;;;;;;53.60;47.85;;;16.80;82.00;;;;;;5007383;28;20478;-79
2022/05/23 04:05:14;;;;;;;54.88;49.05;;;16.80;82.10;;;;;;5009728;28;20176;-78
2022/05/23 04:07:41;;;;;;;55.40;49.60;;;16.90;81.90;;;;;;5006545;28;20068;-79
2022/05/23 04:10:14;;;;;;;58.25;51.67;;;16.90;81.90;;;;;;5014591;28;20026;-78
2022/05/23 04:12:39;;;;;;;61.60;54.90;;;16.90;81.90;;;;;;5012532;28;20141;-78
2022/05/23 04:15:06;;;;;;;56.33;50.28;;;16.70;82.10;;;;;;5004606;28;20034;-78
2022/05/23 04:17:34;;;;;;;57.90;51.70;;;16.80;82.20;;;;;;5004347;28;20417;-78
2022/05/23 04:20:00;;;;;;;60.60;53.63;;;16.80;82.20;;;;;;5029597;28;20100;-78
2022/05/23 04:22:25;;;;;;;57.25;51.28;;;16.70;82.20;;;;;;5005457;28;20030;-78
2022/05/23 04:24:51;;;;;;;53.78;48.17;;;16.70;82.40;;;;;;4997852;28;20050;-77
2022/05/23 04:27:17;;;;;;;57.20;50.97;;;16.80;82.50;;;;;;4995767;28;20034;-78
2022/05/23 04:29:43;;;;;;;57.70;51.50;;;16.80;82.40;;;;;;4994588;28;20058;-78
2022/05/23 04:35:12;;;;;;;59.72;53.35;;;16.80;82.30;;;;;;5020066;28;20044;-78
2022/05/23 04:35:13;;;;;;;58.42;52.33;;;16.80;82.30;;;;;;4999611;28;20493;-78
2022/05/23 04:37:51;;;;;;;56.92;50.67;;;16.80;82.50;;;;;;5001607;28;20026;-78
2022/05/23 04:40:20;;;;;;;60.40;50.90;;;16.80;82.70;;;;;;4995422;28;20064;-78
2022/05/23 04:42:46;;;;;;;60.60;54.08;;;16.80;82.60;;;;;;4992393;28;20038;-78
2022/05/23 04:45:13;;;;;;;57.88;51.80;;;16.80;82.60;;;;;;4995877;28;20046;-77
2022/05/23 04:50:24;;;;;;;56.53;50.53;;;16.80;82.70;;;;;;5000151;28;20128;-77
2022/05/23 04:52:51;;;;;;;56.38;50.33;;;16.90;82.30;;;;;;4995190;28;20053;-78
2022/05/23 04:55:17;;;;;;;52.50;46.97;;;17.00;82.40;;;;;;5008233;28;20045;-77
2022/05/23 04:57:43;;;;;;;53.88;48.08;;;17.10;82.40;;;;;;4993933;28;20030;-77
2022/05/23 05:00:12;;;;;;;55.13;49.25;;;17.10;81.80;;;;;;5000054;28;20081;-77
2022/05/23 05:02:38;;;;;;;53.80;47.92;;;17.10;81.50;;;;;;4991030;28;20573;-77
2022/05/23 05:05:05;;;;;;;49.60;44.28;;;17.20;81.40;;;;;;5020032;28;20060;-78
2022/05/23 05:07:31;;;;;;;53.42;47.83;;;17.30;81.50;;;;;;4992933;28;20041;-77
2022/05/23 05:09:56;;;;;;;52.40;45.35;;;17.30;81.20;;;;;;4990741;28;20263;-77
2022/05/23 05:12:22;;;;;;;51.75;46.28;;;17.40;81.10;;;;;;4991594;28;20398;-77
2022/05/23 05:14:48;;;;;;;51.10;45.58;;;17.60;80.90;;;;;;4991056;28;20122;-77
2022/05/23 05:17:13;;;;;;;49.88;44.53;;;17.60;80.50;;;;;;4990697;28;20121;-77
2022/05/23 05:19:39;;;;;;;51.13;45.83;;;17.70;80.50;;;;;;4993505;28;20032;-77
2022/05/23 05:22:05;;;;;;;52.30;46.70;;;17.80;80.40;;;;;;4990934;28;20084;-77
2022/05/23 05:24:32;;;;;;;51.25;45.97;;;18.00;80.10;;;;;;4990711;28;20129;-76
2022/05/23 05:27:00;;;;;;;51.90;46.42;;;18.10;79.90;;;;;;4993599;28;20042;-77
2022/05/23 05:29:26;;;;;;;49.92;44.30;;;18.10;78.90;;;;;;5013295;28;20040;-77
2022/05/23 05:32:10;;;;;;;50.05;42.83;;;18.30;79.20;;;;;;5015478;28;20041;-77
2022/05/23 05:34:46;;;;;;;;;;;18.40;78.70;;;;;;5005083;28;20049;-78
2022/05/23 05:37:29;;;;;;;49.00;43.90;;;18.40;78.30;;;;;;5000334;28;20026;-77
2022/05/23 05:39:58;;;;;;;51.22;45.70;;;18.40;78.20;;;;;;5009717;28;20069;-77
2022/05/23 05:42:39;;;;;;;51.97;46.55;;;18.50;78.30;;;;;;4998884;28;20118;-77
2022/05/23 05:45:10;;;;;;;51.33;45.67;;;18.50;78.50;;;;;;4988685;28;20054;-78
2022/05/23 05:47:38;;;;;;;53.15;47.63;;;18.50;78.50;;;;;;5011630;28;20038;-77
2022/05/23 05:50:15;;;;;;;51.90;46.17;;;18.50;78.60;;;;;;5001593;28;20052;-78
2022/05/23 05:52:41;;;;;;;52.78;47.13;;;18.50;78.60;;;;;;5010066;28;20125;-77
2022/05/23 05:55:08;;;;;;;53.30;47.97;;;18.50;78.60;;;;;;4992556;28;20121;-78
2022/05/23 05:57:34;;;;;;;52.95;47.33;;;18.50;78.50;;;;;;5013534;28;20037;-78
2022/05/23 06:00:00;;;;;;;49.03;43.80;;;18.50;78.10;;;;;;5005419;28;20042;-78
2022/05/23 06:02:26;;;;;;;46.65;41.83;;;18.50;78.30;;;;;;5003377;28;20039;-77
2022/05/23 06:04:51;;;;;;;43.60;39.22;;;18.60;78.50;;;;;;4995319;28;20490;-77
2022/05/23 06:12:53;;;;;;;47.97;43.05;;;18.60;78.00;;;;;;4995018;28;20095;-79
2022/05/23 06:15:18;;;;;;;50.65;45.03;;;18.60;77.80;;;;;;5006116;28;20042;-77
2022/05/23 06:17:44;;;;;;;53.05;47.63;;;18.70;78.60;;;;;;5007461;28;20500;-73
2022/05/23 06:20:14;;;;;;;49.55;44.63;;;18.70;78.80;;;;;;4995794;28;20109;-76
2022/05/23 06:22:40;;;;;;;52.75;47.20;;;18.60;79.00;;;;;;4990984;28;20031;-76
2022/05/23 06:25:07;;;;;;;48.80;43.80;;;18.60;79.70;;;;;;4994127;28;20566;-75
2022/05/23 06:27:32;;;;;;;51.70;46.08;;;18.60;79.90;;;;;;4989751;28;20512;-75
2022/05/23 06:29:58;;;;;;;53.03;47.40;;;18.60;80.20;;;;;;4994834;28;20042;-76
2022/05/23 06:32:24;;;;;;;51.08;45.58;;;18.70;80.40;;;;;;4995721;28;20118;-73
2022/05/23 06:34:50;;;;;;;47.72;43.17;;;18.70;80.50;;;;;;5002156;28;20044;-76
2022/05/23 06:37:16;;;;;;;44.88;40.17;;;18.70;80.40;;;;;;5006418;28;21844;-77
2022/05/23 06:39:41;;;;;;;44.17;39.72;;;18.80;79.80;;;;;;5004291;28;20036;-76
2022/05/23 06:42:07;;;;;;;45.40;40.70;;;18.70;78.40;;;;;;5010880;28;20038;-77
2022/05/23 06:44:33;;;;;;;43.20;38.72;;;18.60;78.30;;;;;;5005295;28;20069;-77
2022/05/23 06:46:59;;;;;;;41.85;37.50;;;18.60;78.50;;;;;;5015621;28;20089;-77
2022/05/23 06:49:25;;;;;;;44.63;39.83;;;18.40;78.60;;;;;;5000188;28;20097;-77
2022/05/23 06:51:52;;;;;;;43.33;38.85;;;18.40;79.20;;;;;;4997748;28;20046;-76
2022/05/23 06:54:22;;;;;;;48.25;43.38;;;18.40;79.80;;;;;;4992947;28;20051;-76
2022/05/23 06:56:48;;;;;;;42.28;35.70;;;18.40;79.70;;;;;;5024094;28;20034;-75
2022/05/23 06:59:15;;;;;;;45.53;40.83;;;18.40;78.60;;;;;;4992534;28;20037;-76
2022/05/23 07:01:41;;;;;;;47.42;42.42;;;18.40;79.50;;;;;;4995801;28;20030;-75
2022/05/23 07:04:08;;;;;;;54.63;48.78;;;18.50;80.10;;;;;;5001362;28;20343;-77
2022/05/23 07:12:23;;;;;;;60.10;53.85;;;18.60;81.70;;;;;;5001927;28;19983;-76
2022/05/23 07:14:51;;;;;;;61.45;55.08;;;18.50;81.90;;;;;;5008760;28;20034;-76
2022/05/23 07:17:17;;;;;;;60.33;54.05;;;18.60;82.20;;;;;;5005225;28;20569;-77
2022/05/23 07:19:43;;;;;;;54.22;48.63;;;18.60;82.00;;;;;;4997142;28;20117;-77
2022/05/23 07:22:09;;;;;;;58.28;49.75;;;18.60;81.60;;;;;;4994723;28;20030;-75
2022/05/23 07:24:35;;;;;;;57.08;51.15;;;18.60;81.10;;;;;;5005523;28;20046;-74
2022/05/23 07:27:02;;;;;;;54.80;48.70;;;18.60;80.60;;;;;;5012380;28;20125;-74
2022/05/23 07:29:28;;;;;;;57.22;51.08;;;18.60;80.40;;;;;;5009634;28;20033;-75
2022/05/23 07:31:56;;;;;;;58.25;52.30;;;18.90;80.60;;;;;;5002157;28;20038;-75
2022/05/23 07:34:21;;;;;;;55.20;49.67;;;19.10;80.30;;;;;;4995833;28;20089;-74
2022/05/23 07:36:48;;;;;;;51.97;46.33;;;19.60;79.90;;;;;;4998342;28;20465;-72
2022/05/23 07:39:15;;;;;;;53.25;47.53;;;19.80;75.80;;;;;;5011902;28;20095;-73
2022/05/23 07:41:41;;;;;;;50.90;45.58;;;20.10;75.40;;;;;;5008994;28;20040;-74
2022/05/23 07:44:09;;;;;;;48.78;43.42;;;20.50;73.80;;;;;;5001117;28;20268;-76
2022/05/23 07:46:35;;;;;;;48.20;43.38;;;20.70;72.20;;;;;;5008710;28;20478;-76
2022/05/23 07:49:01;;;;;;;46.83;41.72;;;21.10;72.50;;;;;;5012638;28;20038;-77
2022/05/23 07:51:30;;;;;;;41.22;37.03;;;21.60;69.30;;;;;;5017304;28;20370;-75
2022/05/23 08:02:15;;;;;;;;;;;20.90;68.20;;;;;;5007719;28;20099;-74
2022/05/23 08:04:42;;;;;;;43.50;39.10;;;20.90;69.60;;;;;;5001516;28;19936;-76
2022/05/23 08:07:09;;;;;;;38.45;34.40;;;20.70;71.20;;;;;;5002570;28;20634;-77
2022/05/23 08:09:36;;;;;;;40.58;36.47;;;20.70;71.30;;;;;;5001788;28;20044;-74
2022/05/23 08:12:04;;;;;;;42.55;38.05;;;20.90;70.70;;;;;;4995435;28;20041;-75
2022/05/23 08:14:30;;;;;;;45.25;37.45;;;21.00;70.40;;;;;;4995585;28;20128;-74
2022/05/23 08:16:56;;;;;;;41.15;36.13;;;21.10;70.80;;;;;;5004929;28;20493;-77
2022/05/23 08:19:21;;;;;;;44.25;38.10;;;21.30;70.40;;;;;;5004914;28;20042;-75
2022/05/23 08:21:51;;;;;;;42.15;36.88;;;21.40;69.30;;;;;;5007869;28;20078;-74
2022/05/23 08:24:17;;;;;;;42.95;37.15;;;21.50;68.00;;;;;;5010748;28;20164;-74
2022/05/23 08:26:43;;;;;;;44.20;34.20;;;21.30;68.00;;;;;;4994581;28;20093;-73
2022/05/23 08:29:10;;;;;;;43.35;36.63;;;21.40;69.60;;;;;;4993817;28;20062;-74
2022/05/23 08:31:36;;;;;;;38.30;31.05;;;21.70;68.80;;;;;;4989012;28;20045;-73
2022/05/23 08:34:03;;;;;;;36.15;27.70;;;21.90;67.50;;;;;;4992453;28;20049;-73
2022/05/23 08:36:29;;;;;;;33.72;27.50;;;22.20;66.50;;;;;;4997520;28;20037;-73
2022/05/23 08:38:54;;;;;;;28.70;25.10;;;22.60;65.30;;;;;;5000885;28;20387;-78
2022/05/23 08:41:50;;;;;;;29.27;24.30;;;22.70;62.20;;;;;;5009849;28;20041;-74
2022/05/23 08:44:25;;;;;;;25.90;22.85;;;22.70;62.80;;;;;;5019098;28;20503;-74
2022/05/23 08:47:11;;;;;;;23.98;21.38;;;23.20;62.20;;;;;;5006407;28;20549;-73
2022/05/23 08:49:58;;;;;;;25.75;20.88;;;23.70;60.10;;;;;;4999590;28;20096;-75
2022/05/23 08:52:46;;;;;;;24.42;20.67;;;23.40;57.40;;;;;;4999303;28;20073;-76
2022/05/23 08:55:30;;;;;;;27.00;21.08;;;22.80;59.40;;;;;;5005798;28;20045;-75
2022/05/23 08:58:17;;;;;;;23.98;20.02;;;22.90;59.60;;;;;;5017660;28;20044;-73
2022/05/23 09:00:45;;;;;;;27.33;21.88;;;22.80;60.10;;;;;;5015271;28;20049;-75
2022/05/23 09:03:32;;;;;;;26.17;20.00;;;22.70;58.80;;;;;;4995334;28;20076;-76
2022/05/23 09:06:11;;;;;;;24.63;20.70;;;22.70;60.10;;;;;;4995690;28;20038;-81
2022/05/23 09:08:57;;;;;;;27.73;22.33;;;22.50;60.40;;;;;;4996039;28;20037;-81
2022/05/23 09:11:32;;;;;;;27.35;20.52;;;22.20;60.60;;;;;;4992503;28;20553;-81
2022/05/23 09:13:59;;;;;;;24.73;21.85;;;21.90;63.50;;;;;;4996303;28;20408;-81
2022/05/23 09:16:32;;;;;;;22.08;19.27;;;21.90;63.50;;;;;;4993667;28;20117;-82
2022/05/23 09:19:10;;;;;;;27.93;22.87;;;21.90;63.20;;;;;;4996996;28;20222;-75
2022/05/23 09:24:20;;;;;;;;;;;21.70;64.60;;;;;;4990405;28;20781;-78
2022/05/23 09:26:46;;;;;;;28.63;23.60;;;21.70;65.30;;;;;;5003411;28;19917;-77
2022/05/23 09:29:13;;;;;;;29.42;23.77;;;21.70;64.70;;;;;;4994433;28;20408;-78
2022/05/23 09:31:47;;;;;;;30.70;26.15;;;21.60;65.10;;;;;;5002905;28;20829;-75
2022/05/23 09:34:33;;;;;;;28.63;25.58;;;21.40;65.20;;;;;;5005778;28;20041;-76
2022/05/23 09:37:01;;;;;;;29.40;26.15;;;21.20;65.90;;;;;;5001180;28;20046;-76
2022/05/23 09:39:29;;;;;;;31.27;27.65;;;21.20;67.20;;;;;;5005943;28;20025;-76
2022/05/23 09:47:54;;;;;;;33.88;28.60;;;20.90;67.90;;;;;;5010969;28;20111;-78
2022/05/23 09:50:26;;;;;;;33.15;28.05;;;20.90;68.70;;;;;;5005382;28;20092;-80
2022/05/23 09:52:56;;;;;;;33.28;28.75;;;21.00;68.40;;;;;;5003243;28;20079;-77
2022/05/23 09:55:31;;;;;;;36.67;29.15;;;21.10;68.20;;;;;;5008901;28;20076;-78
2022/05/23 09:58:00;;;;;;;34.40;30.83;;;21.30;67.80;;;;;;4999469;28;20367;-80
2022/05/23 10:00:35;;;;;;;36.08;32.13;;;21.30;68.10;;;;;;4997474;28;20034;-77
2022/05/23 10:03:03;;;;;;;40.75;34.13;;;21.10;68.30;;;;;;4979721;28;20045;-78
2022/05/23 10:05:39;;;;;;;39.22;35.08;;;21.00;69.20;;;;;;4998128;28;20410;-80
2022/05/23 10:08:11;;;;;;;41.72;35.45;;;20.70;69.20;;;;;;4992668;28;20286;-79
2022/05/23 10:10:51;;;;;;;38.45;34.40;;;20.50;69.20;;;;;;4990937;28;20645;-78
2022/05/23 10:13:29;;;;;;;37.95;33.83;;;20.40;69.80;;;;;;4991144;28;20569;-78
2022/05/23 10:15:58;;;;;;;38.70;34.53;;;20.30;69.80;;;;;;5010430;28;20061;-80
2022/05/23 10:18:34;;;;;;;40.58;35.70;;;20.20;70.00;;;;;;5011478;28;20061;-76
2022/05/23 10:21:05;;;;;;;42.90;35.88;;;20.10;69.80;;;;;;4994187;28;20388;-78
2022/05/23 10:23:39;;;;;;;40.67;36.58;;;20.10;70.00;;;;;;4996584;28;20505;-77
2022/05/23 10:26:24;;;;;;;42.35;37.90;;;20.10;70.60;;;;;;5000942;28;20053;-78
2022/05/23 10:29:19;;;;;;;44.97;40.35;;;20.10;71.00;;;;;;5036335;28;20045;-75
2022/05/23 10:31:56;;;;;;;47.10;41.78;;;20.10;71.00;;;;;;5006014;28;20125;-77
2022/05/23 10:34:41;;;;;;;48.58;42.85;;;20.10;71.60;;;;;;4990560;28;20410;-77
2022/05/23 10:37:17;;;;;;;50.33;44.70;;;20.00;72.40;;;;;;4991524;28;20031;-76
2022/05/23 10:43:00;;;;;;;60.80;52.80;;;19.90;74.20;;;;;;4992618;28;20137;-77
2022/05/23 10:45:40;;;;;;;60.67;54.05;;;19.80;75.00;;;;;;4988544;28;20118;-76
2022/05/23 10:48:29;;;;;;;64.15;57.35;;;19.60;75.70;;;;;;4986093;28;20088;-76
2022/05/23 10:51:31;;;;;;;65.60;58.72;;;19.60;76.80;;;;;;4989212;28;20050;-75
2022/05/23 10:54:12;;;;;;;67.70;59.10;;;19.40;77.00;;;;;;4987356;28;20067;-78
2022/05/23 10:57:02;;;;;;;62.22;55.95;;;19.30;77.70;;;;;;4986581;28;20038;-77
2022/05/23 10:59:37;;;;;;;65.60;58.83;;;19.30;78.10;;;;;;4985591;28;20366;-75
2022/05/23 11:02:37;;;;;;;61.72;55.28;;;19.10;78.20;;;;;;4987652;28;20039;-76
2022/05/23 11:05:14;;;;;;;62.38;55.65;;;19.20;78.50;;;;;;4984469;28;20516;-75
2022/05/23 11:07:46;;;;;;;58.92;52.47;;;19.20;78.90;;;;;;4991796;28;20061;-76
2022/05/23 11:10:41;;;;;;;59.65;53.45;;;19.10;78.60;;;;;;5017779;28;20042;-75
2022/05/23 11:13:06;;;;;;;;;;;19.10;79.20;;;;;;4983313;28;20035;-75
2022/05/23 11:16:09;;;;;;;57.20;51.22;;;19.10;79.50;;;;;;4987645;28;20165;-77
2022/05/23 11:19:11;;;;;;;59.25;53.25;;;19.00;80.00;;;;;;4990592;28;20154;-74
2022/05/23 11:21:41;;;;;;;60.85;54.38;;;18.90;80.90;;;;;;5001113;28;20053;-75
2022/05/23 11:24:20;;;;;;;60.95;54.30;;;18.80;81.20;;;;;;5006380;28;20057;-75
2022/05/23 11:33:41;;;;;;;58.30;52.53;;;18.70;82.00;;;;;;4987662;28;20140;-77
2022/05/23 11:35:21;;;;;;;43.65;38.95;;;18.10;83.20;;;;;;4998416;28;20563;-75
2022/05/23 11:37:52;;;;;;;38.13;33.95;;;18.00;83.20;;;;;;4994761;28;20125;-77
2022/05/23 11:40:26;;;;;;;34.72;29.77;;;17.80;83.20;;;;;;4998681;28;20038;-74
2022/05/23 11:43:00;;;;;;;;;;;17.80;83.00;;;;;;5008769;28;20362;-75
2022/05/23 11:48:41;;;;;;;24.55;21.88;;;17.50;83.60;;;;;;4992843;28;20084;-74
2022/05/23 11:51:26;;;;;;;26.02;19.70;;;17.30;83.80;;;;;;4996121;28;20038;-74
2022/05/23 11:54:06;;;;;;;25.88;19.92;;;17.20;83.80;;;;;;5010572;28;20136;-75
2022/05/23 11:56:32;;;;;;;25.55;20.67;;;17.20;84.10;;;;;;4998901;28;20045;-75
2022/05/23 11:58:57;;;;;;;25.27;20.77;;;17.10;84.10;;;;;;5004898;28;20477;-77
2022/05/23 12:01:27;;;;;;;24.40;18.95;;;17.10;84.40;;;;;;5003875;28;20386;-74
2022/05/23 12:03:52;;;;;;;26.58;19.90;;;17.20;84.60;;;;;;5013084;28;20045;-77
2022/05/23 12:06:24;;;;;;;24.27;20.13;;;17.30;85.10;;;;;;4998218;28;20038;-77
2022/05/23 12:09:16;;;;;;;23.60;18.80;;;17.50;84.50;;;;;;5018512;28;20052;-75
2022/05/23 12:11:44;;;;;;;22.30;18.80;;;17.30;83.90;;;;;;4986368;28;20541;-74
2022/05/23 12:14:24;;;;;;;22.45;18.55;;;17.40;84.40;;;;;;5002553;28;20579;-74
2022/05/23 12:16:49;;;;;;;20.45;17.00;;;17.30;84.00;;;;;;5003279;28;20405;-74
2022/05/23 12:19:38;;;;;;;22.27;15.63;;;17.20;84.00;;;;;;5000410;28;20038;-75
2022/05/23 12:22:27;;;;;;;21.35;13.63;;;17.00;83.80;;;;;;5001834;28;20048;-74
2022/05/23 12:25:00;;;;;;;16.23;13.02;;;16.70;84.50;;;;;;5000481;28;20050;-75
2022/05/23 12:27:36;;;;;;;18.52;13.40;;;16.60;84.90;;;;;;5011988;28;20488;-74
2022/05/23 12:30:17;;;;;;;21.05;12.55;;;16.60;85.30;;;;;;5005978;28;20475;-75
2022/05/23 12:33:06;;;;;;;19.58;12.80;;;16.60;84.80;;;;;;5006792;28;20069;-75
2022/05/23 12:35:40;;;;;;;18.25;12.75;;;16.70;85.20;;;;;;4994356;28;20141;-75
2022/05/23 12:38:09;;;;;;;;;;;16.70;84.80;;;;;;5000958;28;20064;-76
2022/05/23 12:40:54;;;;;;;18.20;11.95;;;16.70;85.00;;;;;;5016568;28;19948;-75
2022/05/23 12:43:35;;;;;;;18.38;13.88;;;16.80;85.10;;;;;;5017807;28;20873;-75
2022/05/23 12:46:14;;;;;;;17.80;13.68;;;16.70;85.10;;;;;;5022624;28;20045;-74
2022/05/23 12:48:45;;;;;;;19.05;14.43;;;16.60;85.60;;;;;;5001729;28;20045;-75
2022/05/23 12:51:11;;;;;;;21.60;15.30;;;16.50;85.80;;;;;;5009653;28;20039;-73
2022/05/23 12:53:47;;;;;;;23.23;16.58;;;16.50;85.80;;;;;;5010463;28;20063;-74
2022/05/23 12:56:38;;;;;;;22.33;15.35;;;16.30;86.10;;;;;;5001165;28;20044;-75
2022/05/23 12:59:26;;;;;;;22.05;15.13;;;16.20;86.10;;;;;;4991015;28;20046;-74
2022/05/23 13:02:00;;;;;;;17.90;15.38;;;16.10;86.60;;;;;;5010262;28;20041;-74
2022/05/23 13:04:39;;;;;;;22.77;15.45;;;16.10;87.00;;;;;;5010207;28;20445;-73
2022/05/23 13:07:16;;;;;;;21.10;15.73;;;16.00;87.20;;;;;;5008722;28;20040;-73
2022/05/23 13:09:48;;;;;;;19.92;16.00;;;16.00;87.60;;;;;;5007254;28;20556;-74
2022/05/23 13:12:41;;;;;;;22.48;16.10;;;16.00;87.60;;;;;;5009258;28;20037;-74
2022/05/23 13:15:08;;;;;;;20.73;14.93;;;15.80;87.10;;;;;;4990724;28;20053;-76
2022/05/23 13:17:39;;;;;;;20.80;14.73;;;15.80;87.70;;;;;;5008515;28;20033;-73
2022/05/23 13:23:18;;;;;;;19.48;15.02;;;16.10;87.40;;;;;;4993719;28;20504;-76
2022/05/23 13:25:45;;;;;;;20.38;14.70;;;15.90;87.20;;;;;;5000829;28;20533;-78
2022/05/23 13:28:15;;;;;;;23.85;16.00;;;15.90;87.10;;;;;;5016738;28;20029;-75
2022/05/23 13:30:44;;;;;;;19.73;16.73;;;15.90;87.40;;;;;;5012553;28;20361;-75
2022/05/23 13:33:20;;;;;;;20.30;16.95;;;16.00;87.40;;;;;;5012482;28;20398;-74
2022/05/23 13:35:53;;;;;;;21.38;18.23;;;16.10;87.50;;;;;;5005588;28;20041;-74
2022/05/23 13:38:21;;;;;;;23.30;18.33;;;16.10;87.80;;;;;;5008084;28;20133;-75
2022/05/23 13:40:58;;;;;;;22.23;17.77;;;16.10;87.50;;;;;;5007539;28;20029;-76
2022/05/23 13:43:31;;;;;;;23.65;18.75;;;16.00;88.10;;;;;;5005027;28;20483;-77